createdAt,value
2024-02-24T00:02:15.982Z,96874.84
2024-02-24T00:04:43.544Z,96876.44
2024-02-24T00:07:11.483Z,96869.28
2024-02-24T00:09:38.995Z,96868.47
2024-02-24T00:12:07.079Z,96857.81
2024-02-24T00:14:34.579Z,96863.16
2024-02-24T00:17:02.508Z,96853.56
2024-02-24T00:19:30.184Z,96848.25
2024-02-24T00:21:58.527Z,96857.25
2024-02-24T00:24:26.112Z,96854.38
2024-02-24T00:26:53.861Z,96843.72
2024-02-24T00:29:21.507Z,96840.25
2024-02-24T00:31:49.418Z,96835.97
2024-02-24T00:34:17.043Z,96836.78
2024-02-24T00:36:44.679Z,96835.97
2024-02-24T00:39:12.103Z,96835.97
2024-02-24T00:41:40.050Z,96839.44
2024-02-24T00:44:09.917Z,96830.66
2024-02-24T00:46:38.850Z,96828.00
2024-02-24T00:49:06.557Z,96825.34
2024-02-24T00:51:34.603Z,96821.06
2024-02-24T00:54:02.274Z,96830.66
2024-02-24T00:56:30.108Z,96829.06
2024-02-24T00:58:57.729Z,96839.69
2024-02-24T01:01:25.889Z,96829.84
2024-02-24T01:03:53.423Z,96835.16
2024-02-24T01:06:21.330Z,96826.41
2024-02-24T01:08:49.070Z,96817.59
2024-02-24T01:11:17.102Z,96816.56
2024-02-24T01:13:45.265Z,96817.34
2024-02-24T01:16:13.166Z,96807.78
2024-02-24T01:18:40.575Z,96806.94
2024-02-24T01:21:08.595Z,96802.44
2024-02-24T01:23:36.173Z,96797.13
2024-02-24T01:26:04.173Z,96798.75
2024-02-24T01:28:32.019Z,96797.13
2024-02-24T01:31:00.063Z,96798.75
2024-02-24T01:33:27.845Z,96804.06
2024-02-24T01:35:56.147Z,96802.44
2024-02-24T01:38:24.537Z,96808.56
2024-02-24T01:40:52.330Z,96805.13
2024-02-24T01:43:30.636Z,96808.56
2024-02-24T01:45:59.784Z,96808.34
2024-02-24T01:48:28.176Z,96814.69
2024-02-24T01:50:56.858Z,96809.38
2024-02-24T01:53:25.392Z,96820.00
2024-02-24T01:55:54.690Z,96813.91
2024-02-24T01:58:22.659Z,96810.19
2024-02-24T02:00:51.611Z,96811.00
2024-02-24T02:03:19.632Z,96793.41
2024-02-24T02:05:49.175Z,96782.78
2024-02-24T02:08:17.031Z,96778.53
2024-02-24T02:10:48.930Z,96796.31
2024-02-24T02:13:16.711Z,96813.09
2024-02-24T02:15:44.822Z,96807.78
2024-02-24T02:18:12.403Z,96806.72
2024-02-24T02:20:40.521Z,96802.44
2024-02-24T02:23:08.139Z,96803.25
2024-02-24T02:25:36.547Z,96802.44
2024-02-24T02:28:04.618Z,96797.13
2024-02-24T02:30:32.529Z,96798.16
2024-02-24T02:33:00.369Z,96802.44
2024-02-24T02:35:29.053Z,96807.78
2024-02-24T02:37:57.255Z,96798.16
2024-02-24T02:40:25.226Z,96806.94
2024-02-24T02:42:52.996Z,96806.16
2024-02-24T02:45:20.919Z,96800.59
2024-02-24T02:47:48.811Z,96795.50
2024-02-24T02:50:16.871Z,96803.47
2024-02-24T02:52:45.100Z,96797.13
2024-02-24T02:55:13.097Z,96796.31
2024-02-24T02:57:40.682Z,96800.81
2024-02-24T03:00:08.884Z,96800.81
2024-02-24T03:02:36.837Z,96791.81
2024-02-24T03:05:05.021Z,96780.34
2024-02-24T03:07:32.545Z,96789.16
2024-02-24T03:10:01.025Z,96790.19
2024-02-24T03:12:29.030Z,96790.19
2024-02-24T03:14:57.967Z,96795.50
2024-02-24T03:17:25.578Z,96795.50
2024-02-24T03:19:53.817Z,96800.81
2024-02-24T03:22:21.259Z,96795.50
2024-02-24T03:24:49.238Z,96800.81
2024-02-24T03:27:16.872Z,96800.81
2024-02-24T03:29:44.842Z,96790.19
2024-02-24T03:32:12.348Z,96793.91
2024-02-24T03:34:40.648Z,96801.63
2024-02-24T03:37:08.207Z,96806.16
2024-02-24T03:39:38.258Z,96800.81
2024-02-24T03:42:05.910Z,96806.94
2024-02-24T03:44:33.630Z,96809.84
2024-02-24T03:47:01.142Z,96811.47
2024-02-24T03:49:29.109Z,96814.13
2024-02-24T03:51:56.920Z,96827.41
2024-02-24T03:54:25.994Z,96830.06
2024-02-24T03:56:53.577Z,96835.41
2024-02-24T03:59:21.545Z,96831.94
2024-02-24T04:01:49.168Z,96840.72
2024-02-24T04:04:17.248Z,96839.69
2024-02-24T04:06:45.210Z,96843.16
2024-02-24T04:09:13.316Z,96841.78
2024-02-24T04:11:41.060Z,96848.69
2024-02-24T04:14:09.631Z,96845.22
2024-02-24T04:16:37.305Z,96839.91
2024-02-24T04:19:05.294Z,96833.53
2024-02-24T04:21:32.875Z,96824.97
2024-02-24T04:24:00.919Z,96822.09
2024-02-24T04:26:28.628Z,96824.97
2024-02-24T04:28:56.431Z,96829.28
2024-02-24T04:31:24.279Z,96830.88
2024-02-24T04:33:52.143Z,96831.94
2024-02-24T04:36:20.147Z,96840.72
2024-02-24T04:38:48.021Z,96853.22
2024-02-24T04:41:15.874Z,96856.09
2024-02-24T04:43:43.607Z,96857.47
2024-02-24T04:46:11.229Z,96852.41
2024-02-24T04:48:39.181Z,96860.13
2024-02-24T04:51:06.664Z,96865.22
2024-02-24T04:53:35.003Z,96864.66
2024-02-24T04:56:02.594Z,96865.44
2024-02-24T04:58:30.793Z,96872.63
2024-02-24T05:00:58.324Z,96876.94
2024-02-24T05:03:26.274Z,96879.59
2024-02-24T05:05:54.217Z,96881.41
2024-02-24T05:08:22.102Z,96877.72
2024-02-24T05:10:49.722Z,96882.25
2024-02-24T05:13:17.558Z,96885.94
2024-02-24T05:15:45.158Z,96887.56
2024-02-24T05:18:13.133Z,96896.56
2024-02-24T05:20:41.480Z,96899.81
2024-02-24T05:23:09.337Z,96899.00
2024-02-24T05:25:37.548Z,96896.56
2024-02-24T05:28:05.453Z,96896.22
2024-02-24T05:30:32.970Z,96904.44
2024-02-24T05:33:01.005Z,96902.81
2024-02-24T05:35:28.627Z,96902.81
2024-02-24T05:37:56.855Z,96906.53
2024-02-24T05:40:24.491Z,96909.75
2024-02-24T05:42:52.944Z,96924.91
2024-02-24T05:45:20.348Z,96934.72
2024-02-24T05:47:48.151Z,96943.53
2024-02-24T05:50:15.840Z,96952.31
2024-02-24T05:52:44.160Z,96957.63
2024-02-24T05:55:11.716Z,96971.50
2024-02-24T05:57:39.755Z,96969.88
2024-02-24T06:00:12.330Z,96971.50
2024-02-24T06:02:40.476Z,96972.53
2024-02-24T06:05:08.156Z,96983.19
2024-02-24T06:07:40.048Z,96990.13
2024-02-24T06:10:08.888Z,97003.44
2024-02-24T06:12:37.132Z,96996.47
2024-02-24T06:15:04.963Z,96999.13
2024-02-24T06:17:32.948Z,97008.75
2024-02-24T06:20:00.503Z,97014.66
2024-02-24T06:22:28.828Z,97024.69
2024-02-24T06:24:56.353Z,97019.38
2024-02-24T06:27:24.330Z,97030.81
2024-02-24T06:29:52.391Z,97046.78
2024-02-24T06:32:20.312Z,97060.88
2024-02-24T06:34:48.169Z,97062.75
2024-02-24T06:37:16.041Z,97075.81
2024-02-24T06:39:44.015Z,97079.50
2024-02-24T06:42:12.107Z,97087.47
2024-02-24T06:44:40.820Z,97084.03
2024-02-24T06:47:17.832Z,97096.25
2024-02-24T06:49:52.748Z,97112.47
2024-02-24T06:52:21.187Z,97110.63
2024-02-24T06:54:48.653Z,97113.28
2024-02-24T06:57:16.678Z,97123.09
2024-02-24T06:59:46.606Z,97131.09
2024-02-24T07:02:15.471Z,97136.41
2024-02-24T07:04:43.865Z,97141.72
2024-02-24T07:07:12.041Z,97137.44
2024-02-24T07:09:39.760Z,97141.72
2024-02-24T07:12:08.145Z,97145.41
2024-02-24T07:14:36.349Z,97150.72
2024-02-24T07:17:05.218Z,97154.44
2024-02-24T07:19:33.303Z,97161.38
2024-02-24T07:22:01.398Z,97166.69
2024-02-24T07:24:28.862Z,97181.63
2024-02-24T07:26:56.605Z,97185.31
2024-02-24T07:29:24.173Z,97198.59
2024-02-24T07:31:52.132Z,97204.72
2024-02-24T07:34:20.089Z,97214.56
2024-02-24T07:36:48.324Z,97209.25
2024-02-24T07:39:15.914Z,97211.09
2024-02-24T07:41:43.888Z,97225.19
2024-02-24T07:44:11.304Z,97222.53
2024-02-24T07:46:39.422Z,97226.84
2024-02-24T07:49:07.391Z,97241.97
2024-02-24T07:51:35.398Z,97252.38
2024-02-24T07:54:03.496Z,97254.25
2024-02-24T07:56:31.494Z,97250.78
2024-02-24T07:58:59.056Z,97257.91
2024-02-24T08:01:28.433Z,97256.09
2024-02-24T08:03:56.938Z,97262.00
2024-02-24T08:06:25.375Z,97266.50
2024-02-24T08:08:54.383Z,97277.97
2024-02-24T08:11:22.613Z,97288.59
2024-02-24T08:13:50.844Z,97298.41
2024-02-24T08:16:22.271Z,97303.13
2024-02-24T08:18:51.563Z,97310.09
2024-02-24T08:21:23.706Z,97310.31
2024-02-24T08:23:52.191Z,97311.34
2024-02-24T08:26:20.748Z,97323.00
2024-02-24T08:28:48.667Z,97325.69
2024-02-24T08:31:16.845Z,97325.47
2024-02-24T08:33:44.719Z,97324.66
2024-02-24T08:36:16.171Z,97323.84
2024-02-24T08:38:44.890Z,97332.63
2024-02-24T08:41:13.137Z,97324.66
2024-02-24T08:43:40.631Z,97340.63
2024-02-24T08:46:10.461Z,97334.25
2024-02-24T08:48:39.854Z,97342.22
2024-02-24T08:51:09.052Z,97336.91
2024-02-24T08:53:36.700Z,97336.91
2024-02-24T08:56:06.391Z,97341.22
2024-02-24T08:58:34.313Z,97356.34
2024-02-24T09:01:03.253Z,97364.31
2024-02-24T09:03:30.863Z,97365.97
2024-02-24T09:05:59.859Z,97366.75
2024-02-24T09:08:27.448Z,97372.09
2024-02-24T09:10:55.351Z,97371.66
2024-02-24T09:13:22.984Z,97383.31
2024-02-24T09:15:51.735Z,97382.28
2024-02-24T09:18:19.560Z,97401.94
2024-02-24T09:20:47.822Z,97403.56
2024-02-24T09:23:15.406Z,97414.22
2024-02-24T09:25:45.146Z,97415.84
2024-02-24T09:28:12.768Z,97417.47
2024-02-24T09:30:40.877Z,97420.69
2024-02-24T09:33:08.634Z,97432.97
2024-02-24T09:35:36.721Z,97431.94
2024-02-24T09:38:04.695Z,97436.25
2024-02-24T09:40:32.721Z,97436.03
2024-02-24T09:43:04.988Z,97442.75
2024-02-24T09:45:43.193Z,97437.44
2024-02-24T09:48:12.374Z,97440.69
2024-02-24T09:50:42.208Z,97446.00
2024-02-24T09:53:10.313Z,97450.28
2024-02-24T09:55:38.746Z,97455.38
2024-02-24T09:58:11.753Z,97461.53
2024-02-24T10:00:41.402Z,97470.09
2024-02-24T10:03:24.060Z,97470.69
2024-02-24T10:05:58.631Z,97466.41
2024-02-24T10:08:26.591Z,97465.97
2024-02-24T10:10:54.595Z,97462.72
2024-02-24T10:13:22.925Z,97470.47
2024-02-24T10:15:51.900Z,97484.00
2024-02-24T10:18:20.308Z,97496.25
2024-02-24T10:20:49.089Z,97497.91
2024-02-24T10:23:17.964Z,97504.84
2024-02-24T10:25:47.763Z,97500.34
2024-02-24T10:28:17.411Z,97512.00
2024-02-24T10:30:46.950Z,97512.81
2024-02-24T10:33:16.072Z,97512.00
2024-02-24T10:35:46.200Z,97525.31
2024-02-24T10:38:23.750Z,97522.44
2024-02-24T10:41:02.291Z,97517.53
2024-02-24T10:43:30.484Z,97514.69
2024-02-24T10:45:58.434Z,97529.38
2024-02-24T10:48:26.785Z,97527.78
2024-02-24T10:50:54.900Z,97518.97
2024-02-24T10:53:29.588Z,97519.78
2024-02-24T10:55:59.110Z,97526.13
2024-02-24T10:58:26.931Z,97536.34
2024-02-24T11:00:55.245Z,97531.84
2024-02-24T11:03:24.021Z,97524.91
2024-02-24T11:05:52.735Z,97522.25
2024-02-24T11:08:41.596Z,97525.09
2024-02-24T11:11:12.571Z,97523.84
2024-02-24T11:14:00.111Z,97527.78
2024-02-24T11:16:40.500Z,97532.66
2024-02-24T11:19:13.152Z,97542.28
2024-02-24T11:22:02.773Z,97542.88
2024-02-24T11:24:32.762Z,97538.56
2024-02-24T11:27:02.759Z,97543.88
2024-02-24T11:29:31.094Z,97546.13
2024-02-24T11:32:13.479Z,97544.47
2024-02-24T11:34:47.040Z,97544.06
2024-02-24T11:37:19.653Z,97547.31
2024-02-24T11:39:49.112Z,97546.88
2024-02-24T11:42:18.086Z,97540.75
2024-02-24T11:44:49.881Z,97547.69
2024-02-24T11:47:20.067Z,97539.47
2024-02-24T11:49:49.475Z,97544.81
2024-02-24T11:52:28.636Z,97557.91
2024-02-24T11:54:57.621Z,97546.41
2024-02-24T11:57:26.247Z,97552.59
2024-02-24T11:59:53.880Z,97555.59
2024-02-24T12:02:22.250Z,97564.19
2024-02-24T12:04:50.373Z,97572.16
2024-02-24T12:07:19.876Z,97574.84
2024-02-24T12:09:48.946Z,97586.53
2024-02-24T12:12:19.677Z,97582.81
2024-02-24T12:14:47.440Z,97588.94
2024-02-24T12:17:15.996Z,97595.53
2024-02-24T12:19:44.066Z,97600.44
2024-02-24T12:22:14.074Z,97598.78
2024-02-24T12:24:42.500Z,97590.22
2024-02-24T12:27:11.040Z,97600.44
2024-02-24T12:29:39.513Z,97598.78
2024-02-24T12:32:08.073Z,97605.75
2024-02-24T12:34:35.826Z,97597.97
2024-02-24T12:37:04.785Z,97605.75
2024-02-24T12:39:33.112Z,97605.53
2024-02-24T12:42:03.259Z,97606.38
2024-02-24T12:44:32.132Z,97609.03
2024-02-24T12:47:03.140Z,97612.69
2024-02-24T12:49:31.027Z,97611.09
2024-02-24T12:51:59.091Z,97610.03
2024-02-24T12:54:27.329Z,97612.69
2024-02-24T12:56:55.623Z,97611.91
2024-02-24T12:59:24.706Z,97611.09
2024-02-24T13:01:52.613Z,97616.41
2024-02-24T13:04:20.371Z,97616.41
2024-02-24T13:06:48.345Z,97616.41
2024-02-24T13:09:16.338Z,97618.03
2024-02-24T13:11:44.360Z,97622.34
2024-02-24T13:14:12.019Z,97627.66
2024-02-24T13:16:40.075Z,97632.97
2024-02-24T13:19:08.296Z,97626.63
2024-02-24T13:21:40.762Z,97627.41
2024-02-24T13:24:08.325Z,97633.59
2024-02-24T13:26:37.152Z,97638.91
2024-02-24T13:29:05.075Z,97644.81
2024-02-24T13:31:33.646Z,97645.84
2024-02-24T13:34:01.376Z,97655.25
2024-02-24T13:36:29.223Z,97649.91
2024-02-24T13:38:57.191Z,97656.06
2024-02-24T13:41:26.681Z,97664.63
2024-02-24T13:43:54.832Z,97666.28
2024-02-24T13:46:23.689Z,97665.69
2024-02-24T13:49:05.698Z,97669.97
2024-02-24T13:51:34.462Z,97670.81
2024-02-24T13:54:02.016Z,97672.63
2024-02-24T13:56:29.900Z,97679.59
2024-02-24T13:58:57.850Z,97677.94
2024-02-24T14:01:26.702Z,97685.72
2024-02-24T14:03:55.450Z,97687.59
2024-02-24T14:06:24.940Z,97689.66
2024-02-24T14:08:53.043Z,97683.28
2024-02-24T14:11:22.382Z,97684.13
2024-02-24T14:13:50.536Z,97691.28
2024-02-24T14:16:19.600Z,97689.66
2024-02-24T14:18:47.597Z,97698.25
2024-02-24T14:21:15.702Z,97703.34
2024-02-24T14:23:43.407Z,97701.72
2024-02-24T14:26:12.368Z,97703.56
2024-02-24T14:28:40.084Z,97707.25
2024-02-24T14:31:08.284Z,97712.56
2024-02-24T14:33:36.044Z,97715.22
2024-02-24T14:36:04.903Z,97711.75
2024-02-24T14:38:35.211Z,97723.22
2024-02-24T14:41:04.228Z,97728.53
2024-02-24T14:43:33.160Z,97726.94
2024-02-24T14:46:04.293Z,97734.09
2024-02-24T14:48:32.301Z,97743.50
2024-02-24T14:51:00.516Z,97734.91
2024-02-24T14:53:28.559Z,97732.25
2024-02-24T14:55:57.073Z,97739.19
2024-02-24T14:58:24.797Z,97746.38
2024-02-24T15:00:53.121Z,97742.09
2024-02-24T15:03:21.046Z,97751.91
2024-02-24T15:05:49.357Z,97747.63
2024-02-24T15:08:17.675Z,97759.28
2024-02-24T15:10:45.922Z,97759.28
2024-02-24T15:13:21.098Z,97753.16
2024-02-24T15:15:53.845Z,97762.19
2024-02-24T15:18:21.608Z,97766.72
2024-02-24T15:20:50.249Z,97772.03
2024-02-24T15:23:17.871Z,97768.78
2024-02-24T15:25:47.857Z,97779.41
2024-02-24T15:28:16.145Z,97777.78
2024-02-24T15:30:44.073Z,97770.00
2024-02-24T15:33:12.071Z,97776.16
2024-02-24T15:35:40.769Z,97779.03
2024-02-24T15:38:08.682Z,97778.22
2024-02-24T15:40:39.787Z,97783.53
2024-02-24T15:43:09.934Z,97788.88
2024-02-24T15:45:38.521Z,97778.22
2024-02-24T15:48:07.233Z,97780.28
2024-02-24T15:50:35.866Z,97787.22
2024-02-24T15:53:03.534Z,97790.31
2024-02-24T15:55:31.647Z,97799.31
2024-02-24T15:58:01.130Z,97798.50
2024-02-24T16:00:29.051Z,97812.63
2024-02-24T16:02:57.173Z,97800.56
2024-02-24T16:05:25.158Z,97813.88
2024-02-24T16:07:52.793Z,97811.22
2024-02-24T16:10:20.793Z,97813.06
2024-02-24T16:12:49.739Z,97817.56
2024-02-24T16:15:19.643Z,97821.25
2024-02-24T16:17:47.678Z,97814.50
2024-02-24T16:20:18.037Z,97811.84
2024-02-24T16:22:45.635Z,97829.47
2024-02-24T16:25:16.378Z,97829.69
2024-02-24T16:27:44.478Z,97822.50
2024-02-24T16:30:13.035Z,97836.84
2024-02-24T16:32:40.822Z,97837.66
2024-02-24T16:35:09.328Z,97844.22
2024-02-24T16:37:36.809Z,97854.66
2024-02-24T16:40:05.326Z,97858.16
2024-02-24T16:42:32.955Z,97859.97
2024-02-24T16:45:03.542Z,97864.47
2024-02-24T16:47:34.654Z,97854.88
2024-02-24T16:50:04.422Z,97869.81
2024-02-24T16:52:32.525Z,97864.47
2024-02-24T16:55:01.024Z,97879.44
2024-02-24T16:57:29.045Z,97872.47
2024-02-24T16:59:57.526Z,97875.31
2024-02-24T17:02:25.438Z,97876.16
2024-02-24T17:04:56.646Z,97887.00
2024-02-24T17:07:24.855Z,97884.34
2024-02-24T17:09:52.689Z,97888.88
2024-02-24T17:12:20.589Z,97877.38
2024-02-24T17:14:51.013Z,97875.75
2024-02-24T17:17:19.699Z,97886.41
2024-02-24T17:19:47.670Z,97887.22
2024-02-24T17:22:15.483Z,97887.22
2024-02-24T17:24:43.362Z,97889.88
2024-02-24T17:27:11.209Z,97894.19
2024-02-24T17:29:39.482Z,97891.72
2024-02-24T17:32:07.173Z,97887.22
2024-02-24T17:34:36.836Z,97894.19
2024-02-24T17:37:04.993Z,97901.94
2024-02-24T17:39:32.740Z,97905.66
2024-02-24T17:42:00.437Z,97906.25
2024-02-24T17:44:28.407Z,97914.03
2024-02-24T17:46:55.931Z,97913.44
2024-02-24T17:49:26.512Z,97922.03
2024-02-24T17:51:54.089Z,97919.38
2024-02-24T17:54:24.601Z,97916.72
2024-02-24T17:56:52.356Z,97918.31
2024-02-24T17:59:21.365Z,97915.88
2024-02-24T18:01:50.687Z,97921.19
2024-02-24T18:04:18.684Z,97915.06
2024-02-24T18:06:46.489Z,97910.53
2024-02-24T18:09:14.519Z,97914.25
2024-02-24T18:11:42.683Z,97903.59
2024-02-24T18:14:10.949Z,97913.44
2024-02-24T18:16:38.635Z,97913.44
2024-02-24T18:19:08.489Z,97911.78
2024-02-24T18:21:36.425Z,97912.59
2024-02-24T18:24:04.347Z,97918.75
2024-02-24T18:26:33.266Z,97906.47
2024-02-24T18:29:02.485Z,97911.78
2024-02-24T18:31:30.197Z,97912.81
2024-02-24T18:33:58.270Z,97924.47
2024-02-24T18:36:28.781Z,97920.81
2024-02-24T18:38:56.637Z,97939.44
2024-02-24T18:41:24.288Z,97932.25
2024-02-24T18:43:52.155Z,97935.53
2024-02-24T18:46:22.572Z,97932.69
2024-02-24T18:48:51.277Z,97930.22
2024-02-24T18:51:18.838Z,97935.53
2024-02-24T18:53:46.865Z,97942.28
2024-02-24T18:56:14.405Z,97939.63
2024-02-24T18:58:42.134Z,97954.59
2024-02-24T19:01:10.872Z,97942.28
2024-02-24T19:03:38.743Z,97955.59
2024-02-24T19:06:06.415Z,97951.91
2024-02-24T19:08:34.478Z,97951.06
2024-02-24T19:11:13.077Z,97959.91
2024-02-24T19:13:41.119Z,97953.53
2024-02-24T19:16:10.179Z,97956.19
2024-02-24T19:18:38.191Z,97955.59
2024-02-24T19:21:06.074Z,97955.59
2024-02-24T19:23:35.026Z,97953.13
2024-02-24T19:26:02.650Z,97951.91
2024-02-24T19:28:30.340Z,97950.09
2024-02-24T19:30:59.497Z,97952.75
2024-02-24T19:33:27.647Z,97944.97
2024-02-24T19:35:55.293Z,97944.97
2024-02-24T19:38:24.956Z,97940.88
2024-02-24T19:40:52.467Z,97945.41
2024-02-24T19:43:20.073Z,97936.38
2024-02-24T19:45:47.393Z,97933.91
2024-02-24T19:48:15.729Z,97934.94
2024-02-24T19:50:48.653Z,97930.63
2024-02-24T19:53:16.655Z,97940.88
2024-02-24T19:55:44.000Z,97935.97
2024-02-24T19:58:21.051Z,97935.16
2024-02-24T20:00:56.750Z,97950.31
2024-02-24T20:03:24.587Z,97950.31
2024-02-24T20:05:52.393Z,97950.31
2024-02-24T20:08:20.485Z,97951.31
2024-02-24T20:10:48.206Z,97956.44
2024-02-24T20:13:16.157Z,97957.69
2024-02-24T20:15:43.611Z,97958.47
2024-02-24T20:18:11.441Z,97957.69
2024-02-24T20:20:38.944Z,97955.00
2024-02-24T20:23:06.536Z,97963.00
2024-02-24T20:25:33.893Z,97965.03
2024-02-24T20:28:03.811Z,97969.38
2024-02-24T20:30:31.409Z,97968.75
2024-02-24T20:32:59.360Z,97963.44
2024-02-24T20:35:28.436Z,97968.75
2024-02-24T20:37:56.218Z,97963.44
2024-02-24T20:40:23.607Z,97952.78
2024-02-24T20:42:51.512Z,97958.09
2024-02-24T20:45:18.998Z,97964.44
2024-02-24T20:47:47.116Z,97957.50
2024-02-24T20:50:14.665Z,97955.66
2024-02-24T20:52:42.228Z,97952.97
2024-02-24T20:55:09.850Z,97953.19
2024-02-24T20:57:38.400Z,97953.19
2024-02-24T21:00:06.540Z,97953.19
2024-02-24T21:02:34.642Z,97959.31
2024-02-24T21:05:02.026Z,97956.88
2024-02-24T21:07:29.842Z,97951.56
2024-02-24T21:09:58.099Z,97944.59
2024-02-24T21:12:25.845Z,97948.91
2024-02-24T21:14:53.313Z,97940.91
2024-02-24T21:17:21.029Z,97939.06
2024-02-24T21:19:48.558Z,97941.13
2024-02-24T21:22:16.228Z,97953.59
2024-02-24T21:24:43.564Z,97947.25
2024-02-24T21:27:11.240Z,97944.59
2024-02-24T21:29:38.672Z,97948.28
2024-02-24T21:32:07.276Z,97945.63
2024-02-24T21:34:35.133Z,97944.81
2024-02-24T21:37:02.915Z,97949.28
2024-02-24T21:39:30.320Z,97942.34
2024-02-24T21:41:58.780Z,97940.50
2024-02-24T21:44:26.481Z,97936.84
2024-02-24T21:46:54.471Z,97939.69
2024-02-24T21:49:22.042Z,97933.56
2024-02-24T21:51:49.792Z,97933.56
2024-02-24T21:54:17.176Z,97943.34
2024-02-24T21:56:47.877Z,97938.03
2024-02-24T21:59:15.233Z,97940.69
2024-02-24T22:01:42.836Z,97946.25
2024-02-24T22:04:10.250Z,97934.75
2024-02-24T22:06:38.152Z,97934.75
2024-02-24T22:09:06.118Z,97934.75
2024-02-24T22:11:35.138Z,97933.16
2024-02-24T22:14:03.655Z,97931.50
2024-02-24T22:16:31.362Z,97927.81
2024-02-24T22:18:58.813Z,97920.66
2024-02-24T22:21:27.971Z,97927.81
2024-02-24T22:23:56.267Z,97920.84
2024-02-24T22:26:25.331Z,97919.03
2024-02-24T22:28:53.563Z,97919.22
2024-02-24T22:31:21.914Z,97915.53
2024-02-24T22:33:49.380Z,97925.38
2024-02-24T22:36:17.820Z,97920.03
2024-02-24T22:38:46.093Z,97921.88
2024-02-24T22:41:13.765Z,97923.75
2024-02-24T22:43:41.125Z,97928.25
2024-02-24T22:46:09.674Z,97937.25
2024-02-24T22:48:37.232Z,97932.97
2024-02-24T22:51:05.069Z,97941.75
2024-02-24T22:53:32.472Z,97940.94
2024-02-24T22:56:00.171Z,97941.75
2024-02-24T22:58:27.420Z,97942.56
2024-02-24T23:00:55.052Z,97939.28
2024-02-24T23:03:23.728Z,97947.28
2024-02-24T23:05:52.035Z,97946.25
2024-02-24T23:08:20.123Z,97948.91
2024-02-24T23:10:47.966Z,97947.28
2024-02-24T23:13:15.379Z,97944.59
2024-02-24T23:15:43.009Z,97942.16
2024-02-24T23:18:10.871Z,97938.69
2024-02-24T23:20:38.643Z,97936.00
2024-02-24T23:23:06.765Z,97930.69
2024-02-24T23:25:34.546Z,97936.00
2024-02-24T23:28:02.397Z,97932.34
2024-02-24T23:30:30.853Z,97930.69
2024-02-24T23:32:58.405Z,97923.75
2024-02-24T23:35:26.106Z,97925.38
2024-02-24T23:37:53.770Z,97929.88
2024-02-24T23:40:21.474Z,97924.56
2024-02-24T23:42:49.210Z,97928.22
2024-02-24T23:45:17.499Z,97938.69
2024-02-24T23:47:45.438Z,97925.38
2024-02-24T23:50:13.169Z,97927.41
2024-02-24T23:52:41.429Z,97927.41
2024-02-24T23:55:09.310Z,97933.56
2024-02-24T23:57:36.814Z,97938.06
